Time;durP1;ratioP1;P1;durP2;ratioP2;P2;SDS_P1;SDS_P2;PMS_P1;PMS_P2;Temp;Humidity;BMP_temperature;BMP_pressure;BME280_temperature;BME280_humidity;BME280_pressure;Samples;Min_cycle;Max_cycle;Signal;HPM_P1;HPM_P2
2022/06/06 00:00:49;;;;;;;1.83;0.90;;;19.30;84.30;;;;;;5076310;28;20024;-87
2022/06/06 00:03:17;;;;;;;2.85;1.20;;;19.30;84.30;;;;;;5094473;28;20028;-88
2022/06/06 00:05:47;;;;;;;7.55;1.15;;;19.30;84.40;;;;;;5095115;28;20024;-86
2022/06/06 00:08:14;;;;;;;10.00;1.50;;;19.40;83.70;;;;;;5076204;28;20659;-87
2022/06/06 00:10:42;;;;;;;1.98;1.10;;;19.50;83.60;;;;;;5096861;28;20036;-86
2022/06/06 00:13:10;;;;;;;2.90;1.23;;;19.50;83.60;;;;;;5099411;28;20059;-88
2022/06/06 00:15:35;;;;;;;5.63;1.17;;;19.50;83.50;;;;;;5095774;28;20110;-87
2022/06/06 00:18:02;;;;;;;2.35;1.10;;;19.50;83.40;;;;;;5094262;28;20498;-88
2022/06/06 00:20:30;;;;;;;5.70;1.40;;;19.60;83.00;;;;;;5094508;28;20024;-87
2022/06/06 00:22:56;;;;;;;4.20;1.30;;;19.50;83.30;;;;;;5093862;28;20035;-87
2022/06/06 00:25:22;;;;;;;3.53;1.13;;;19.50;83.20;;;;;;5092899;28;20098;-85
2022/06/06 00:27:48;;;;;;;5.03;1.35;;;19.50;83.60;;;;;;5092210;28;20123;-87
2022/06/06 00:30:13;;;;;;;3.45;1.42;;;19.40;83.60;;;;;;5092153;28;20020;-88
2022/06/06 00:35:23;;;;;;;1.58;1.10;;;19.50;83.30;;;;;;5094221;28;20039;-88
2022/06/06 00:37:49;;;;;;;7.20;1.38;;;19.50;83.10;;;;;;5093135;28;20020;-87
2022/06/06 00:40:18;;;;;;;3.22;1.05;;;19.40;82.80;;;;;;5073915;28;20082;-85
2022/06/06 00:42:44;;;;;;;1.52;0.90;;;19.30;83.20;;;;;;5092589;28;20056;-86
2022/06/06 00:45:29;;;;;;;2.13;0.98;;;19.30;83.00;;;;;;5074784;28;20050;-88
2022/06/06 00:48:39;;;;;;;2.33;1.20;;;19.30;82.60;;;;;;5076306;28;20118;-87
2022/06/06 00:51:14;;;;;;;6.13;1.10;;;19.30;82.70;;;;;;5010904;28;20030;-88
2022/06/06 00:53:46;;;;;;;3.90;1.20;;;19.30;82.30;;;;;;5009640;28;20044;-85
2022/06/06 00:56:23;;;;;;;3.85;1.30;;;19.30;82.40;;;;;;5037645;28;20024;-85
2022/06/06 00:58:54;;;;;;;1.50;1.00;;;19.40;82.90;;;;;;5070100;28;20028;-85
2022/06/06 01:01:21;;;;;;;1.92;1.00;;;19.30;82.60;;;;;;5091568;28;20419;-87
2022/06/06 01:03:47;;;;;;;10.82;2.00;;;19.40;81.70;;;;;;5092194;28;20023;-86
2022/06/06 01:06:17;;;;;;;1.73;0.93;;;19.50;81.20;;;;;;5090758;28;20186;-86
2022/06/06 01:08:46;;;;;;;3.38;0.90;;;19.40;81.20;;;;;;5091387;28;20118;-84
2022/06/06 01:11:12;;;;;;;3.20;1.00;;;19.40;80.80;;;;;;5073135;28;20028;-85
2022/06/06 01:13:39;;;;;;;1.20;0.80;;;19.30;81.10;;;;;;5072229;28;20383;-85
2022/06/06 01:16:19;;;;;;;1.65;0.85;;;19.30;80.50;;;;;;5088602;28;20032;-86
2022/06/06 01:19:09;;;;;;;4.05;1.13;;;19.30;81.20;;;;;;5090688;28;20538;-85
2022/06/06 01:21:49;;;;;;;1.85;0.95;;;19.30;81.10;;;;;;5090681;28;20557;-85
2022/06/06 01:24:36;;;;;;;2.22;1.05;;;19.20;81.00;;;;;;5072510;28;20054;-85
2022/06/06 01:27:08;;;;;;;;;;;19.30;80.90;;;;;;5091782;28;20081;-85
2022/06/06 01:29:40;;;;;;;2.83;1.13;;;19.20;81.70;;;;;;5074253;28;19998;-84
2022/06/06 01:32:10;;;;;;;6.07;0.90;;;19.20;82.80;;;;;;5091393;28;20496;-87
2022/06/06 01:34:39;;;;;;;3.50;1.13;;;19.30;81.50;;;;;;5092850;28;20035;-87
2022/06/06 01:37:34;;;;;;;1.38;1.08;;;19.40;81.80;;;;;;5074974;28;20028;-87
2022/06/06 01:40:04;;;;;;;2.38;1.00;;;19.30;82.10;;;;;;5074863;28;20066;-86
2022/06/06 01:42:42;;;;;;;3.55;1.50;;;19.20;82.70;;;;;;5073256;28;20155;-85
2022/06/06 01:45:17;;;;;;;1.25;0.80;;;19.10;83.40;;;;;;5091266;28;20035;-85
2022/06/06 01:47:49;;;;;;;3.05;1.00;;;19.10;83.80;;;;;;5090816;28;20035;-85
2022/06/06 01:50:16;;;;;;;1.30;0.80;;;18.90;84.80;;;;;;5088982;28;20097;-85
2022/06/06 01:53:01;;;;;;;3.25;1.23;;;18.90;85.20;;;;;;5071342;28;20053;-85
2022/06/06 01:55:29;;;;;;;5.80;1.27;;;18.80;85.50;;;;;;5090897;28;20030;-83
2022/06/06 01:58:00;;;;;;;3.05;1.55;;;18.80;86.30;;;;;;5072471;28;20024;-86
2022/06/06 02:00:26;;;;;;;2.53;1.00;;;18.70;86.60;;;;;;5090556;28;20545;-89
2022/06/06 02:02:52;;;;;;;1.60;0.95;;;18.70;87.10;;;;;;5089868;28;20069;-86
2022/06/06 02:05:18;;;;;;;2.75;1.33;;;18.70;87.50;;;;;;5090464;28;20028;-87
2022/06/06 02:07:44;;;;;;;1.20;0.98;;;18.60;87.90;;;;;;5090247;28;20165;-87
2022/06/06 02:10:13;;;;;;;2.13;1.08;;;18.50;88.30;;;;;;5089781;28;20044;-87
2022/06/06 02:12:39;;;;;;;3.38;1.45;;;18.60;87.10;;;;;;5091387;28;20032;-86
2022/06/06 02:15:07;;;;;;;4.05;1.08;;;18.70;87.90;;;;;;5090829;28;20024;-86
2022/06/06 02:17:34;;;;;;;2.15;0.90;;;18.70;87.10;;;;;;5091270;28;20038;-86
2022/06/06 02:20:01;;;;;;;1.73;1.02;;;18.70;88.40;;;;;;5089000;28;20529;-85
2022/06/06 02:22:27;;;;;;;4.68;1.25;;;18.50;89.60;;;;;;5071747;28;20032;-85
2022/06/06 02:24:53;;;;;;;1.20;1.00;;;18.40;90.70;;;;;;5071862;28;20496;-86
2022/06/06 02:27:19;;;;;;;1.80;1.10;;;18.30;91.10;;;;;;5090064;28;20028;-85
2022/06/06 02:29:45;;;;;;;3.35;1.10;;;18.20;91.80;;;;;;5089640;28;20024;-85
2022/06/06 02:32:11;;;;;;;3.65;1.45;;;18.10;92.30;;;;;;5089732;28;20032;-85
2022/06/06 02:34:37;;;;;;;2.50;1.10;;;18.00;91.90;;;;;;5089967;28;20369;-86
2022/06/06 02:37:03;;;;;;;2.22;1.25;;;18.00;92.20;;;;;;5073173;28;20023;-86
2022/06/06 02:39:29;;;;;;;1.90;1.30;;;17.90;92.70;;;;;;5090788;28;20024;-86
2022/06/06 02:41:55;;;;;;;2.65;1.50;;;17.90;93.20;;;;;;5072254;28;20055;-86
2022/06/06 02:44:21;;;;;;;1.30;1.05;;;17.80;93.70;;;;;;5088836;28;20064;-86
2022/06/06 02:46:47;;;;;;;3.95;1.23;;;17.80;94.10;;;;;;5089123;28;20638;-86
2022/06/06 02:49:13;;;;;;;2.35;1.30;;;17.80;94.60;;;;;;5090698;28;20027;-87
2022/06/06 02:51:38;;;;;;;3.10;1.48;;;17.80;94.50;;;;;;5088299;28;20637;-86
2022/06/06 02:54:04;;;;;;;2.45;1.40;;;17.70;95.00;;;;;;5089694;28;20095;-85
2022/06/06 02:56:30;;;;;;;3.17;1.30;;;17.70;95.50;;;;;;5072083;28;20020;-86
2022/06/06 02:59:00;;;;;;;1.70;1.40;;;17.70;95.90;;;;;;5090139;28;20477;-84
2022/06/06 03:01:26;;;;;;;2.55;1.33;;;17.70;96.20;;;;;;5089807;28;20032;-86
2022/06/06 03:03:52;;;;;;;4.30;1.70;;;17.70;96.40;;;;;;5091587;28;20027;-86
2022/06/06 03:06:21;;;;;;;5.05;1.55;;;17.70;96.80;;;;;;5090199;28;20032;-86
2022/06/06 03:09:21;;;;;;;2.75;1.60;;;17.70;97.10;;;;;;5090553;28;20047;-86
2022/06/06 03:12:03;;;;;;;7.18;1.70;;;17.60;97.30;;;;;;5050745;28;20048;-87
2022/06/06 03:14:43;;;;;;;1.98;1.15;;;17.60;97.80;;;;;;5063506;28;20123;-88
2022/06/06 03:20:51;;;;;;;2.20;1.27;;;17.60;98.50;;;;;;5077607;28;20027;-88
2022/06/06 03:23:24;;;;;;;3.45;1.27;;;17.60;99.30;;;;;;5059958;28;20037;-88
2022/06/06 03:26:04;;;;;;;2.20;1.30;;;17.60;99.30;;;;;;5078126;28;20028;-89
2022/06/06 03:28:58;;;;;;;3.33;1.75;;;17.60;99.50;;;;;;5077612;28;20052;-88
2022/06/06 03:31:33;;;;;;;3.70;1.65;;;17.50;99.90;;;;;;5077104;28;20024;-87
2022/06/06 03:34:14;;;;;;;5.97;1.40;;;17.50;99.90;;;;;;5058642;28;20043;-86
2022/06/06 03:36:44;;;;;;;1.98;1.10;;;17.40;99.90;;;;;;5058403;28;20495;-88
2022/06/06 03:39:26;;;;;;;6.97;1.95;;;17.50;99.90;;;;;;5077261;28;20033;-90
2022/06/06 03:42:19;;;;;;;2.70;1.40;;;17.40;99.90;;;;;;5059768;28;20066;-89
2022/06/06 03:45:11;;;;;;;3.80;1.50;;;17.50;99.90;;;;;;5078348;28;20401;-88
2022/06/06 03:48:00;;;;;;;6.90;1.55;;;17.50;99.90;;;;;;5059745;28;20028;-89
2022/06/06 03:50:45;;;;;;;1.92;1.20;;;17.40;99.90;;;;;;5076691;28;20115;-85
2022/06/06 03:53:15;;;;;;;4.13;1.30;;;17.50;99.90;;;;;;5076436;28;20026;-86
2022/06/06 03:56:03;;;;;;;4.15;1.75;;;17.60;99.90;;;;;;5058668;28;20066;-87
2022/06/06 03:58:31;;;;;;;5.68;1.60;;;17.70;99.90;;;;;;5077361;28;20028;-87
2022/06/06 04:01:00;;;;;;;2.75;1.52;;;17.90;99.90;;;;;;5077511;28;20020;-88
2022/06/06 04:03:27;;;;;;;2.22;1.60;;;18.30;99.90;;;;;;5059588;28;20147;-87
2022/06/06 04:05:53;;;;;;;6.38;1.60;;;18.70;99.90;;;;;;5076963;28;20031;-86
2022/06/06 04:08:19;;;;;;;2.15;1.42;;;19.10;99.90;;;;;;5076955;28;20663;-86
2022/06/06 04:11:00;;;;;;;3.53;1.60;;;19.50;99.90;;;;;;5069231;28;20051;-86
2022/06/06 04:13:47;;;;;;;12.02;2.08;;;19.60;99.20;;;;;;5096310;28;20047;-86
2022/06/06 04:16:16;;;;;;;5.22;1.60;;;19.70;98.50;;;;;;5077046;28;20056;-87
2022/06/06 04:18:50;;;;;;;5.03;1.52;;;19.70;98.30;;;;;;5078683;28;20070;-87
2022/06/06 04:21:31;;;;;;;3.63;1.90;;;19.70;98.20;;;;;;5096980;28;20036;-87
2022/06/06 04:24:00;;;;;;;2.97;1.90;;;19.70;98.60;;;;;;5078373;28;20420;-87
2022/06/06 04:27:14;;;;;;;1.75;1.15;;;19.70;98.80;;;;;;5075243;28;20082;-87
2022/06/06 04:29:51;;;;;;;1.95;1.23;;;19.70;98.70;;;;;;5093729;28;20528;-85
2022/06/06 04:32:42;;;;;;;3.03;2.45;;;19.70;98.80;;;;;;5075582;28;20451;-85
2022/06/06 04:35:22;;;;;;;4.07;1.75;;;19.90;98.70;;;;;;5093796;28;20032;-84
2022/06/06 04:38:13;;;;;;;2.95;1.50;;;20.10;97.70;;;;;;5093933;28;20028;-86
2022/06/06 04:41:11;;;;;;;10.13;1.63;;;20.20;98.40;;;;;;5081181;28;20420;-86
2022/06/06 04:44:02;;;;;;;3.33;1.80;;;20.30;98.40;;;;;;5069550;28;20074;-83
2022/06/06 04:46:54;;;;;;;2.17;1.50;;;20.40;98.10;;;;;;5046762;28;20465;-82
2022/06/06 04:49:22;;;;;;;2.22;1.35;;;20.50;98.20;;;;;;5093452;28;20051;-84
2022/06/06 04:51:48;;;;;;;2.22;1.20;;;20.60;98.10;;;;;;5075434;28;20032;-83
2022/06/06 04:54:18;;;;;;;2.17;1.05;;;20.70;97.60;;;;;;5074637;28;20157;-84
2022/06/06 04:56:45;;;;;;;10.00;1.40;;;20.80;97.20;;;;;;5074999;28;20077;-84
2022/06/06 04:59:13;;;;;;;4.10;1.23;;;21.20;96.10;;;;;;5093310;28;20088;-82
2022/06/06 05:01:39;;;;;;;2.10;1.38;;;21.40;96.10;;;;;;5092344;28;20044;-82
2022/06/06 05:04:05;;;;;;;3.05;1.55;;;21.60;95.60;;;;;;5072520;28;20020;-83
2022/06/06 05:06:40;;;;;;;2.67;1.45;;;21.70;94.50;;;;;;5073476;28;20093;-82
2022/06/06 05:09:08;;;;;;;9.60;1.30;;;21.80;94.20;;;;;;5073858;28;20071;-85
2022/06/06 05:11:56;;;;;;;1.67;1.17;;;22.00;93.90;;;;;;5056482;28;20059;-85
2022/06/06 05:14:22;;;;;;;1.90;1.20;;;22.10;93.70;;;;;;5071479;28;20033;-84
2022/06/06 05:17:03;;;;;;;1.35;1.00;;;22.40;91.00;;;;;;5070965;28;20488;-85
2022/06/06 05:19:34;;;;;;;2.80;1.00;;;22.60;86.90;;;;;;5054553;28;20188;-85
2022/06/06 05:22:18;;;;;;;1.95;1.00;;;22.80;84.30;;;;;;5053811;28;20062;-85
2022/06/06 05:25:19;;;;;;;1.77;1.10;;;23.00;80.10;;;;;;5070481;28;20359;-85
2022/06/06 05:28:02;;;;;;;1.27;0.93;;;23.20;77.90;;;;;;5042137;28;20070;-84
2022/06/06 05:31:12;;;;;;;1.85;1.15;;;23.30;75.90;;;;;;5068940;28;20070;-85
2022/06/06 05:33:48;;;;;;;1.48;1.10;;;23.30;79.10;;;;;;5070728;28;20477;-85
2022/06/06 05:36:28;;;;;;;1.85;0.88;;;23.30;75.80;;;;;;5069868;28;20033;-84
2022/06/06 05:39:31;;;;;;;3.35;0.93;;;23.50;74.80;;;;;;5052968;28;20070;-81
2022/06/06 05:42:22;;;;;;;2.08;1.10;;;23.80;72.70;;;;;;5052549;28;20040;-82
2022/06/06 05:44:56;;;;;;;1.77;1.13;;;23.90;71.40;;;;;;5069398;28;20017;-81
2022/06/06 05:47:48;;;;;;;6.28;1.75;;;24.10;67.50;;;;;;5069531;28;20554;-80
2022/06/06 05:50:43;;;;;;;4.22;1.02;;;24.20;67.80;;;;;;5051172;28;20033;-81
2022/06/06 05:53:15;;;;;;;3.45;1.75;;;24.50;66.40;;;;;;5051257;28;20024;-82
2022/06/06 05:56:02;;;;;;;2.40;1.05;;;24.90;65.80;;;;;;5070817;28;20111;-84
2022/06/06 05:58:55;;;;;;;3.88;1.27;;;25.40;64.00;;;;;;5071120;28;20554;-83
2022/06/06 06:01:47;;;;;;;2.55;1.13;;;25.50;61.80;;;;;;5052932;28;20032;-80
2022/06/06 06:04:25;;;;;;;10.75;1.70;;;25.50;60.50;;;;;;5067916;28;20029;-81
2022/06/06 06:07:25;;;;;;;2.92;1.30;;;25.70;61.20;;;;;;5050310;28;20481;-80
2022/06/06 06:10:14;;;;;;;5.95;1.38;;;26.70;58.90;;;;;;5052672;28;20101;-80
2022/06/06 06:12:46;;;;;;;2.30;1.20;;;27.50;54.60;;;;;;5090889;28;20020;-86
2022/06/06 06:15:36;;;;;;;2.05;0.93;;;27.30;52.40;;;;;;5093189;28;20035;-85
2022/06/06 06:18:07;;;;;;;5.75;1.00;;;26.70;53.00;;;;;;5072730;28;20049;-84
2022/06/06 06:20:59;;;;;;;1.65;1.02;;;26.50;54.30;;;;;;5093118;28;20480;-85
2022/06/06 06:23:32;;;;;;;1.58;0.90;;;26.80;54.60;;;;;;5092863;28;20542;-86
2022/06/06 06:26:01;;;;;;;2.55;1.25;;;27.50;52.50;;;;;;5093664;28;20051;-84
2022/06/06 06:28:32;;;;;;;4.93;1.08;;;28.30;51.10;;;;;;5093138;28;20036;-84
2022/06/06 06:31:08;;;;;;;7.35;1.17;;;29.30;49.10;;;;;;5075406;28;20052;-83
2022/06/06 06:33:49;;;;;;;1.85;1.00;;;30.70;45.20;;;;;;5091034;28;20481;-80
2022/06/06 06:36:39;;;;;;;1.25;0.90;;;30.60;44.50;;;;;;5088271;28;20069;-81
2022/06/06 06:39:14;;;;;;;2.33;0.73;;;30.00;44.20;;;;;;5070576;28;20024;-81
2022/06/06 06:42:17;;;;;;;5.00;0.90;;;29.90;44.60;;;;;;5069993;28;20036;-82
2022/06/06 06:44:59;;;;;;;1.10;0.80;;;30.00;43.60;;;;;;5068156;28;20066;-81
2022/06/06 06:47:31;;;;;;;1.48;0.80;;;29.80;43.10;;;;;;5087408;28;20016;-79
2022/06/06 06:50:00;;;;;;;2.83;1.00;;;29.50;43.70;;;;;;5087585;28;20093;-82
2022/06/06 06:52:44;;;;;;;2.20;0.70;;;28.90;45.50;;;;;;5069880;28;20028;-81
2022/06/06 06:55:38;;;;;;;2.42;0.93;;;28.50;45.10;;;;;;5087762;28;20024;-81
2022/06/06 06:58:21;;;;;;;1.17;0.80;;;28.00;45.80;;;;;;5070068;28;20583;-81
2022/06/06 07:00:54;;;;;;;1.38;0.70;;;27.70;46.90;;;;;;5087715;28;20030;-81
2022/06/06 07:10:08;;;;;;;1.70;1.02;;;27.50;48.30;;;;;;5089110;28;20081;-84
2022/06/06 07:13:06;;;;;;;3.05;1.27;;;27.80;47.20;;;;;;5088195;28;20512;-84
2022/06/06 07:15:43;;;;;;;2.03;0.80;;;28.00;46.40;;;;;;5087145;28;20028;-82
2022/06/06 07:18:12;;;;;;;2.15;1.00;;;28.10;46.70;;;;;;5088085;28;20021;-81
2022/06/06 07:20:41;;;;;;;2.13;1.20;;;28.50;45.70;;;;;;5088098;28;20035;-81
2022/06/06 07:23:11;;;;;;;4.28;1.00;;;28.80;45.60;;;;;;5087454;28;20039;-81
2022/06/06 07:25:47;;;;;;;2.78;1.00;;;28.90;44.20;;;;;;5072461;28;20024;-81
2022/06/06 07:28:16;;;;;;;3.10;1.50;;;28.90;45.10;;;;;;5071529;28;20123;-82
2022/06/06 07:30:56;;;;;;;1.90;1.00;;;28.60;46.30;;;;;;5089828;28;20400;-82
2022/06/06 07:33:33;;;;;;;3.70;0.95;;;29.00;46.20;;;;;;5089007;28;20024;-85
2022/06/06 07:36:20;;;;;;;4.22;1.00;;;29.20;46.90;;;;;;5088995;28;20062;-83
2022/06/06 07:39:23;;;;;;;11.90;1.15;;;29.70;44.80;;;;;;5071195;28;20115;-83
2022/06/06 07:42:00;;;;;;;2.28;0.95;;;30.10;42.80;;;;;;5070697;28;20544;-83
2022/06/06 07:44:54;;;;;;;3.05;1.02;;;30.10;45.30;;;;;;5070245;28;20073;-83
2022/06/06 07:47:40;;;;;;;1.52;0.90;;;30.30;44.60;;;;;;5087651;28;20032;-83
2022/06/06 07:50:19;;;;;;;3.67;0.98;;;30.20;43.60;;;;;;5069782;28;20054;-84
2022/06/06 07:52:52;;;;;;;1.40;0.80;;;30.20;43.20;;;;;;5070611;28;20040;-85
2022/06/06 07:55:41;;;;;;;1.20;0.90;;;30.30;43.00;;;;;;5071014;28;20404;-85
2022/06/06 07:58:14;;;;;;;1.27;0.80;;;30.30;43.20;;;;;;5071160;28;20119;-83
2022/06/06 08:00:40;;;;;;;2.67;1.42;;;30.30;43.70;;;;;;5089963;28;20028;-83
2022/06/06 08:03:17;;;;;;;3.55;1.05;;;30.80;44.00;;;;;;5071910;28;20512;-83
2022/06/06 08:06:12;;;;;;;1.45;0.93;;;31.20;42.60;;;;;;5082087;28;20024;-83
2022/06/06 08:08:54;;;;;;;2.58;0.90;;;31.50;42.70;;;;;;5091408;28;20571;-85
2022/06/06 08:11:29;;;;;;;1.65;1.20;;;31.70;41.30;;;;;;5091574;28;20423;-84
2022/06/06 08:14:17;;;;;;;4.70;1.48;;;31.70;41.90;;;;;;5072665;28;20789;-83
2022/06/06 08:16:54;;;;;;;4.63;1.17;;;31.70;41.50;;;;;;5074219;28;20547;-84
2022/06/06 08:19:53;;;;;;;1.27;0.65;;;31.50;40.50;;;;;;5092054;28;20051;-85
2022/06/06 08:22:23;;;;;;;2.63;1.42;;;31.20;39.20;;;;;;5072897;28;20047;-84
2022/06/06 08:24:54;;;;;;;8.55;1.10;;;31.00;40.80;;;;;;5091614;28;20025;-87
2022/06/06 08:27:19;;;;;;;2.03;1.38;;;31.00;39.00;;;;;;5093517;28;20036;-86
2022/06/06 08:29:47;;;;;;;4.78;1.85;;;30.60;39.10;;;;;;5093347;28;20393;-87
2022/06/06 08:32:14;;;;;;;3.15;1.05;;;30.20;41.00;;;;;;5093268;28;20099;-85
2022/06/06 08:34:41;;;;;;;1.77;1.23;;;30.30;40.70;;;;;;5090704;28;20028;-86
2022/06/06 08:37:09;;;;;;;1.52;1.10;;;30.40;42.10;;;;;;5111444;28;20030;-87
2022/06/06 08:40:06;;;;;;;3.38;1.20;;;30.90;40.20;;;;;;5113599;28;20031;-86
2022/06/06 08:43:03;;;;;;;1.67;1.00;;;30.80;39.20;;;;;;5099065;28;20098;-86
2022/06/06 08:45:47;;;;;;;;;;;30.70;41.00;;;;;;5084592;28;20263;-85
2022/06/06 08:48:31;;;;;;;1.25;0.85;;;30.70;39.90;;;;;;5092229;28;20169;-86
2022/06/06 08:51:12;;;;;;;2.42;1.20;;;31.00;39.10;;;;;;5092674;28;20039;-86
2022/06/06 08:53:44;;;;;;;2.38;1.00;;;31.00;39.30;;;;;;5092369;28;20158;-86
2022/06/06 08:56:25;;;;;;;4.95;1.15;;;31.40;40.30;;;;;;5074617;28;20031;-85
2022/06/06 08:59:19;;;;;;;2.15;0.80;;;31.40;40.10;;;;;;5092699;28;20032;-86
2022/06/06 09:02:31;;;;;;;2.10;1.00;;;31.90;38.90;;;;;;5042229;28;20413;-84
2022/06/06 09:05:40;;;;;;;2.20;0.80;;;32.10;38.00;;;;;;5068088;28;20024;-84
2022/06/06 09:08:32;;;;;;;2.40;1.10;;;32.30;37.50;;;;;;5090761;28;20055;-85
2022/06/06 09:11:32;;;;;;;4.65;1.20;;;31.90;37.80;;;;;;5073633;28;20230;-86
2022/06/06 09:14:50;;;;;;;3.95;0.98;;;31.60;37.50;;;;;;5091707;28;20558;-85
2022/06/06 09:19:56;;;;;;;;;;;31.00;37.60;;;;;;5114895;27;20114;-85
2022/06/06 09:22:35;;;;;;;2.97;1.20;;;30.80;38.40;;;;;;5097327;28;19999;-84
2022/06/06 09:25:24;;;;;;;1.35;0.82;;;30.90;38.50;;;;;;5086716;28;20480;-86
2022/06/06 09:28:22;;;;;;;2.22;1.02;;;31.60;39.70;;;;;;5085033;28;20371;-85
2022/06/06 09:31:06;;;;;;;1.55;1.00;;;32.30;36.00;;;;;;5091340;28;20062;-86
2022/06/06 09:34:03;;;;;;;3.00;1.00;;;32.80;31.40;;;;;;5083205;28;20017;-84
2022/06/06 09:36:49;;;;;;;1.00;0.60;;;32.50;33.20;;;;;;5085693;28;20032;-85
2022/06/06 09:39:33;;;;;;;1.70;0.80;;;32.40;32.70;;;;;;5086876;28;20055;-85
2022/06/06 09:42:15;;;;;;;1.88;0.80;;;32.10;34.90;;;;;;5091278;28;20048;-85
2022/06/06 09:45:23;;;;;;;1.52;1.00;;;31.60;33.90;;;;;;5067627;28;20078;-85
2022/06/06 09:48:04;;;;;;;1.73;1.00;;;30.80;35.90;;;;;;5086531;28;20028;-83
2022/06/06 09:50:51;;;;;;;1.33;0.85;;;31.00;38.20;;;;;;5102420;28;20492;-84
2022/06/06 09:53:27;;;;;;;7.18;1.15;;;31.30;37.10;;;;;;5067199;28;20032;-85
2022/06/06 09:59:30;;;;;;;1.10;0.90;;;32.20;33.30;;;;;;5086015;28;20420;-85
2022/06/06 10:02:33;;;;;;;1.85;0.70;;;32.40;34.20;;;;;;5090852;28;20035;-83
2022/06/06 10:05:20;;;;;;;2.05;0.80;;;32.00;35.00;;;;;;5089550;28;20025;-84
2022/06/06 10:08:27;;;;;;;1.60;0.90;;;31.90;36.10;;;;;;5102699;28;20046;-85
2022/06/06 10:11:24;;;;;;;3.10;0.90;;;31.60;34.80;;;;;;5086367;28;20094;-85
2022/06/06 10:14:23;;;;;;;2.15;0.77;;;31.40;36.10;;;;;;5082964;28;20028;-84
2022/06/06 10:17:04;;;;;;;1.70;1.00;;;31.10;36.50;;;;;;5090049;28;20079;-84
2022/06/06 10:19:47;;;;;;;1.88;0.90;;;30.80;36.50;;;;;;5081494;28;20394;-82
2022/06/06 10:22:44;;;;;;;3.80;0.98;;;30.40;35.40;;;;;;5081076;28;20024;-84
2022/06/06 10:25:27;;;;;;;1.23;0.90;;;30.10;34.90;;;;;;5065699;28;20393;-84
2022/06/06 10:28:07;;;;;;;1.42;0.75;;;29.70;36.70;;;;;;5104793;28;20085;-84
2022/06/06 10:30:41;;;;;;;1.27;0.88;;;29.70;36.90;;;;;;5074007;28;20017;-86
2022/06/06 10:33:22;;;;;;;1.77;0.88;;;29.50;36.00;;;;;;5086017;28;20024;-84
2022/06/06 10:36:12;;;;;;;1.83;1.33;;;29.30;37.80;;;;;;5058205;28;20123;-84
2022/06/06 10:39:03;;;;;;;1.23;0.63;;;28.90;37.60;;;;;;5049219;28;20106;-84
2022/06/06 10:41:53;;;;;;;1.50;0.90;;;28.70;37.80;;;;;;5052625;28;20025;-85
2022/06/06 10:44:46;;;;;;;1.95;0.75;;;28.70;39.60;;;;;;5051595;28;20048;-85
2022/06/06 10:47:12;;;;;;;1.98;0.77;;;28.80;38.90;;;;;;5050611;28;20035;-83
2022/06/06 10:50:18;;;;;;;2.42;0.80;;;28.70;38.70;;;;;;5051137;28;20131;-84
2022/06/06 10:53:08;;;;;;;4.35;0.93;;;28.80;39.00;;;;;;5054377;28;20028;-84
2022/06/06 10:55:56;;;;;;;2.85;1.10;;;29.00;39.40;;;;;;5053306;28;20393;-83
2022/06/06 10:58:46;;;;;;;1.30;1.02;;;29.10;39.80;;;;;;5070716;28;20078;-84
2022/06/06 11:01:35;;;;;;;4.32;1.13;;;29.30;39.70;;;;;;5050123;28;20063;-84
2022/06/06 11:04:16;;;;;;;1.30;1.00;;;29.20;38.90;;;;;;5067369;28;20132;-84
2022/06/06 11:07:05;;;;;;;1.25;0.80;;;29.10;39.70;;;;;;5051610;28;20043;-83
2022/06/06 11:10:00;;;;;;;3.92;1.23;;;29.10;40.70;;;;;;5051705;28;20032;-84
2022/06/06 11:12:58;;;;;;;0.93;0.65;;;29.10;39.90;;;;;;5034334;28;20041;-84
2022/06/06 11:15:36;;;;;;;2.67;0.88;;;29.00;37.90;;;;;;4966381;28;20039;-84
2022/06/06 11:18:33;;;;;;;3.20;1.20;;;28.80;39.40;;;;;;5070267;28;20139;-83
2022/06/06 11:21:36;;;;;;;1.40;1.00;;;28.70;39.00;;;;;;5071663;28;20042;-84
2022/06/06 11:24:18;;;;;;;5.82;0.98;;;28.70;39.30;;;;;;5072055;28;20023;-84
2022/06/06 11:27:24;;;;;;;2.95;1.17;;;28.50;39.30;;;;;;5070538;28;20036;-82
2022/06/06 11:30:07;;;;;;;3.65;1.40;;;28.40;38.90;;;;;;5071432;28;20119;-84
2022/06/06 11:32:52;;;;;;;1.67;0.90;;;28.30;39.10;;;;;;5053632;28;20024;-82
2022/06/06 11:35:30;;;;;;;1.50;0.95;;;28.40;40.00;;;;;;5053465;28;20028;-83
2022/06/06 11:38:01;;;;;;;0.90;0.70;;;28.60;40.80;;;;;;5071287;28;20027;-83
2022/06/06 11:41:06;;;;;;;1.27;1.00;;;28.80;41.10;;;;;;5052996;28;20730;-84
2022/06/06 11:44:04;;;;;;;3.97;1.02;;;29.10;42.00;;;;;;5059367;28;20040;-83
2022/06/06 11:47:06;;;;;;;1.70;1.00;;;29.30;40.60;;;;;;5053253;28;20025;-83
2022/06/06 11:49:58;;;;;;;3.88;1.02;;;29.50;40.40;;;;;;5053275;28;20051;-83
2022/06/06 11:53:01;;;;;;;1.83;1.15;;;29.60;38.90;;;;;;5070886;28;20096;-82
2022/06/06 11:55:32;;;;;;;1.35;0.80;;;29.60;39.50;;;;;;5058764;28;20028;-82
2022/06/06 11:58:41;;;;;;;4.10;0.80;;;29.70;39.10;;;;;;5063108;28;20047;-81
2022/06/06 12:01:37;;;;;;;1.55;0.80;;;29.80;38.40;;;;;;5048735;28;20119;-85
2022/06/06 12:04:43;;;;;;;1.42;0.80;;;29.80;37.60;;;;;;5066235;28;20420;-84
2022/06/06 12:07:24;;;;;;;3.08;0.88;;;29.70;37.90;;;;;;5103821;27;20043;-83
2022/06/06 12:10:14;;;;;;;1.40;0.90;;;29.70;37.40;;;;;;5085896;28;20029;-83
2022/06/06 12:13:05;;;;;;;1.75;0.90;;;29.80;37.90;;;;;;5061232;28;20032;-84
2022/06/06 12:16:03;;;;;;;4.30;1.00;;;29.80;36.70;;;;;;5095271;27;20028;-84
2022/06/06 12:19:09;;;;;;;1.58;0.90;;;29.80;36.60;;;;;;5048813;28;20056;-85
2022/06/06 12:22:10;;;;;;;1.75;0.98;;;29.50;36.30;;;;;;5072034;28;20114;-81
2022/06/06 12:25:10;;;;;;;2.35;1.08;;;29.30;37.20;;;;;;5067901;28;20055;-82
2022/06/06 12:27:54;;;;;;;1.85;0.85;;;29.10;38.00;;;;;;5057795;28;20049;-81
2022/06/06 12:30:48;;;;;;;2.78;0.90;;;29.10;38.20;;;;;;5061222;28;20026;-82
2022/06/06 12:33:23;;;;;;;1.20;0.70;;;29.30;37.90;;;;;;5092692;27;20047;-81
2022/06/06 12:36:02;;;;;;;7.43;1.15;;;29.40;38.00;;;;;;5061195;28;20040;-82
2022/06/06 12:38:47;;;;;;;2.20;1.35;;;29.50;38.80;;;;;;5053960;28;20807;-82
2022/06/06 12:41:24;;;;;;;0.90;0.70;;;29.70;38.10;;;;;;5093033;27;20062;-84
2022/06/06 12:44:05;;;;;;;1.48;1.00;;;29.90;38.70;;;;;;5054680;28;20037;-82
2022/06/06 12:47:12;;;;;;;1.60;0.95;;;29.90;38.10;;;;;;5083369;27;20029;-82
2022/06/06 12:49:46;;;;;;;4.53;1.17;;;29.90;37.70;;;;;;5044969;27;20044;-82
2022/06/06 12:52:26;;;;;;;1.70;0.90;;;29.90;37.20;;;;;;5064587;28;20127;-84
2022/06/06 12:55:34;;;;;;;2.13;0.90;;;29.80;37.30;;;;;;5057546;28;20127;-85
2022/06/06 12:58:38;;;;;;;1.25;0.93;;;29.90;37.10;;;;;;5057608;28;20040;-84
2022/06/06 13:01:38;;;;;;;0.95;0.80;;;29.70;36.20;;;;;;5056468;28;20524;-83
2022/06/06 13:04:22;;;;;;;3.30;1.20;;;29.60;37.10;;;;;;5056910;28;20046;-81
2022/06/06 13:07:20;;;;;;;2.08;0.80;;;29.50;37.70;;;;;;5080164;28;20127;-82
2022/06/06 13:10:11;;;;;;;1.83;0.90;;;29.50;37.60;;;;;;5018253;28;20048;-83
2022/06/06 13:12:45;;;;;;;1.58;0.90;;;29.50;35.80;;;;;;5085083;27;20037;-84
2022/06/06 13:16:04;;;;;;;2.35;1.33;;;29.40;36.60;;;;;;5066883;28;20036;-83
2022/06/06 13:18:45;;;;;;;1.73;1.00;;;29.10;37.40;;;;;;5005817;28;20525;-83
2022/06/06 13:21:21;;;;;;;1.27;0.90;;;29.10;37.30;;;;;;5009123;28;20092;-83
2022/06/06 13:24:20;;;;;;;4.75;0.93;;;28.90;36.70;;;;;;5073609;27;20084;-81
2022/06/06 13:26:53;;;;;;;1.92;1.02;;;28.80;37.70;;;;;;5064576;28;20115;-83
2022/06/06 13:29:36;;;;;;;2.55;1.02;;;28.70;37.80;;;;;;5037967;28;20078;-85
2022/06/06 13:32:38;;;;;;;2.22;1.10;;;28.80;37.70;;;;;;5082288;28;20135;-83
2022/06/06 13:35:25;;;;;;;1.00;0.70;;;28.80;36.50;;;;;;5044998;28;20035;-84
2022/06/06 13:37:51;;;;;;;1.83;0.75;;;28.70;36.80;;;;;;5063172;28;20425;-83
2022/06/06 13:40:34;;;;;;;1.35;0.90;;;28.70;38.30;;;;;;5037719;28;20033;-84
2022/06/06 13:43:06;;;;;;;5.47;1.00;;;28.50;37.00;;;;;;5062125;28;20987;-84
2022/06/06 13:45:48;;;;;;;1.77;1.00;;;28.50;37.70;;;;;;5053449;28;20091;-83
2022/06/06 13:48:25;;;;;;;2.15;1.02;;;28.30;37.90;;;;;;5071950;28;20406;-83
2022/06/06 13:51:07;;;;;;;1.48;1.00;;;28.40;37.60;;;;;;5032101;28;20075;-83
2022/06/06 13:53:48;;;;;;;2.00;1.20;;;28.40;37.80;;;;;;5056076;28;20771;-82
2022/06/06 13:56:38;;;;;;;5.38;2.00;;;28.30;38.90;;;;;;5083133;28;20533;-84
2022/06/06 13:59:34;;;;;;;1.23;0.85;;;28.30;39.10;;;;;;5051705;28;20464;-83
2022/06/06 14:02:25;;;;;;;2.20;1.10;;;28.50;39.60;;;;;;5048762;28;20048;-82
2022/06/06 14:05:09;;;;;;;3.65;0.90;;;28.50;38.80;;;;;;5044832;27;20398;-84
2022/06/06 14:07:47;;;;;;;2.13;0.88;;;28.60;38.80;;;;;;5057531;28;20036;-84
2022/06/06 14:10:17;;;;;;;1.85;1.13;;;28.60;38.50;;;;;;5060537;28;20588;-82
2022/06/06 14:12:56;;;;;;;1.35;0.90;;;28.70;39.50;;;;;;5051982;28;20386;-82
2022/06/06 14:15:24;;;;;;;2.75;0.63;;;28.80;38.90;;;;;;5069143;28;20047;-76
2022/06/06 14:18:00;;;;;;;6.18;0.85;;;28.80;38.10;;;;;;5063690;28;20040;-85